Hlavní strana
METAR-TAF:

METAR-TAF

Letiště :

Sinop, Turecko

zeměpisná šířka: 42-00-57N, zeměpisná délka: 035-03-59E, výška: 7 m

Aktuální stav počasí

Zpráva byla vytvořena před 9 hodinami a 21 minutami, v 13:50 UTC
Východojihovýchodní vítr 5 kt, proměnlivý mezi severovýchodním a jihojihovýchodním
Teplota 17°C
Vlhkost vzduchu 82%
Tlak 1021 hPa
Viditelnost 10 km a více
Polojasno ve výšce 1000 ft

METAR: LTCM 121350Z 11005KT 050V160 9999 SCT010 17/14 Q1021

Čas: 02:11 (23:11 UTC)

Předpověď počasí

Zpráva byla vytvořena před 6 hodinami a 31 minutami, v 16:40 UTC
Předpověď platná od 12 v 18 UTC do 13 v 03 UTC
Jihovýchodní vítr 9 kt
Viditelnost: 6000 m
Polojasno ve výšce 900 ft

TAF: LTCM 121640Z 1218/1303 13009KT 6000 SCT009

Stav a předpovědi počasí z více než 4 000 letišť (zprávy METAR a TAF).

Červené a žluté tečky na mapě představují dostupné meteorologické stanice.

Když kurzor umístíte na tečku, zobrazí se název stanice.

Pak kliknutím zobrazíte stav a předpověď počasí.

Chcete-li změnit mapu, kliknutím na zelené tlačítko se znaménkem +mapu přiblížíte, kliknutím na zelené tlačítko se znaménkem – mapu oddálíte a kliknutím na zelené šipky přejdete na sousední mapy.


METAR-TAF: